Terminal Aerodrome Forecast
Issued by NWS Cleveland, OH

Home | Current Version | Previous Version | Graphics & Text | Print | Product List | Glossary On
Versions: 1 2 3 4 5 6 7 8 9 10 11 12 13 14 15 16
884
FTUS41 KCLE 211140
TAFCAK
TAF
KCAK 211140Z 2112/2212 06008KT 4SM -SHRA BKN008 OVC025
      TEMPO 2112/2114 2SM -SHRA OVC005
     FM212000 01006KT P6SM VCSH OVC020
     FM220100 VRB03KT P6SM BKN120
     FM220800 27003KT 4SM BR SCT200=

USA.gov is the U.S. government's official web portal to all federal, state and local government web resources and services.